sensor_id;sensor_type;location;lat;lon;timestamp;pressure;altitude;pressure_sealevel;temperature;humidity
37848;BME280;23688;33.130;-117.188;2022-09-09T00:01:20;98331.88;;;30.34;44.67
37848;BME280;23688;33.130;-117.188;2022-09-09T00:04:19;98332.34;;;30.40;44.37
37848;BME280;23688;33.130;-117.188;2022-09-09T00:09:48;98328.34;;;30.63;44.37
37848;BME280;23688;33.130;-117.188;2022-09-09T00:13:18;98328.66;;;30.73;44.54
37848;BME280;23688;33.130;-117.188;2022-09-09T00:15:35;98330.63;;;30.85;44.47
37848;BME280;23688;33.130;-117.188;2022-09-09T00:18:27;98325.88;;;30.90;43.85
37848;BME280;23688;33.130;-117.188;2022-09-09T00:21:07;98323.78;;;30.80;44.10
37848;BME280;23688;33.130;-117.188;2022-09-09T00:23:56;98322.34;;;30.74;44.04
37848;BME280;23688;33.130;-117.188;2022-09-09T00:26:47;98308.66;;;30.79;44.19
37848;BME280;23688;33.130;-117.188;2022-09-09T00:29:19;98320.91;;;30.68;44.58
37848;BME280;23688;33.130;-117.188;2022-09-09T00:31:49;98328.16;;;30.66;44.32
37848;BME280;23688;33.130;-117.188;2022-09-09T00:34:23;98320.91;;;30.68;44.63
37848;BME280;23688;33.130;-117.188;2022-09-09T00:36:53;98330.56;;;30.71;44.15
37848;BME280;23688;33.130;-117.188;2022-09-09T00:44:37;98316.31;;;30.24;47.40
37848;BME280;23688;33.130;-117.188;2022-09-09T00:47:38;98310.81;;;30.27;47.13
37848;BME280;23688;33.130;-117.188;2022-09-09T00:50:15;98308.09;;;30.43;47.33
37848;BME280;23688;33.130;-117.188;2022-09-09T00:52:52;98307.81;;;30.48;46.55
37848;BME280;23688;33.130;-117.188;2022-09-09T00:57:54;98292.16;;;30.10;46.99
37848;BME280;23688;33.130;-117.188;2022-09-09T01:00:27;98307.00;;;29.84;47.22
37848;BME280;23688;33.130;-117.188;2022-09-09T01:07:58;98272.25;;;29.35;48.70
37848;BME280;23688;33.130;-117.188;2022-09-09T01:13:25;98291.97;;;29.65;47.81
37848;BME280;23688;33.130;-117.188;2022-09-09T01:15:53;98299.69;;;29.88;47.41
37848;BME280;23688;33.130;-117.188;2022-09-09T01:18:23;98289.47;;;30.10;46.69
37848;BME280;23688;33.130;-117.188;2022-09-09T01:21:23;98283.16;;;30.11;46.18
37848;BME280;23688;33.130;-117.188;2022-09-09T01:27:01;98286.91;;;29.93;46.47
37848;BME280;23688;33.130;-117.188;2022-09-09T01:29:28;98291.88;;;29.99;46.25
37848;BME280;23688;33.130;-117.188;2022-09-09T01:31:56;98288.88;;;30.05;46.43
37848;BME280;23688;33.130;-117.188;2022-09-09T01:34:25;98265.81;;;29.86;46.41
37848;BME280;23688;33.130;-117.188;2022-09-09T01:37:19;98261.06;;;29.92;46.21
37848;BME280;23688;33.130;-117.188;2022-09-09T01:39:45;98249.91;;;29.99;46.02
37848;BME280;23688;33.130;-117.188;2022-09-09T01:42:14;98259.31;;;30.22;45.48
37848;BME280;23688;33.130;-117.188;2022-09-09T01:44:42;98250.06;;;30.28;45.41
37848;BME280;23688;33.130;-117.188;2022-09-09T01:47:09;98241.78;;;30.33;44.58
37848;BME280;23688;33.130;-117.188;2022-09-09T01:49:35;98218.91;;;30.27;44.85
37848;BME280;23688;33.130;-117.188;2022-09-09T01:52:02;98210.53;;;30.17;45.09
37848;BME280;23688;33.130;-117.188;2022-09-09T01:54:31;98218.13;;;30.09;44.95
37848;BME280;23688;33.130;-117.188;2022-09-09T01:57:26;98212.25;;;30.18;44.40
37848;BME280;23688;33.130;-117.188;2022-09-09T02:00:11;98211.97;;;30.23;44.63
37848;BME280;23688;33.130;-117.188;2022-09-09T02:02:56;98221.91;;;30.21;45.01
37848;BME280;23688;33.130;-117.188;2022-09-09T02:08:23;98224.56;;;30.21;44.76
37848;BME280;23688;33.130;-117.188;2022-09-09T02:11:23;98236.88;;;30.25;44.86
37848;BME280;23688;33.130;-117.188;2022-09-09T02:14:00;98224.56;;;30.21;44.97
37848;BME280;23688;33.130;-117.188;2022-09-09T02:16:47;98215.97;;;30.16;45.32
37848;BME280;23688;33.130;-117.188;2022-09-09T02:19:23;98212.34;;;30.17;44.94
37848;BME280;23688;33.130;-117.188;2022-09-09T02:21:56;98208.03;;;30.14;44.57
37848;BME280;23688;33.130;-117.188;2022-09-09T02:24:30;98202.94;;;30.10;45.06
37848;BME280;23688;33.130;-117.188;2022-09-09T02:27:01;98218.91;;;30.11;44.68
37848;BME280;23688;33.130;-117.188;2022-09-09T02:29:33;98211.13;;;30.06;44.77
37848;BME280;23688;33.130;-117.188;2022-09-09T02:32:04;98231.69;;;30.06;44.71
37848;BME280;23688;33.130;-117.188;2022-09-09T02:34:35;98230.91;;;30.04;44.86
37848;BME280;23688;33.130;-117.188;2022-09-09T02:37:06;98233.19;;;29.96;45.06
37848;BME280;23688;33.130;-117.188;2022-09-09T02:39:35;98231.03;;;30.02;44.59
37848;BME280;23688;33.130;-117.188;2022-09-09T02:42:02;98224.19;;;29.97;45.04
37848;BME280;23688;33.130;-117.188;2022-09-09T02:44:29;98220.94;;;29.92;44.76
37848;BME280;23688;33.130;-117.188;2022-09-09T02:47:43;98199.31;;;29.80;45.21
37848;BME280;23688;33.130;-117.188;2022-09-09T02:50:34;98218.38;;;29.90;44.86
37848;BME280;23688;33.130;-117.188;2022-09-09T02:55:41;98214.81;;;29.90;44.95
37848;BME280;23688;33.130;-117.188;2022-09-09T02:58:12;98218.44;;;29.89;45.18
37848;BME280;23688;33.130;-117.188;2022-09-09T03:00:45;98207.16;;;29.83;45.38
37848;BME280;23688;33.130;-117.188;2022-09-09T03:03:14;98203.94;;;29.77;45.47
37848;BME280;23688;33.130;-117.188;2022-09-09T03:05:41;98206.88;;;29.72;45.97
37848;BME280;23688;33.130;-117.188;2022-09-09T03:08:09;98217.41;;;29.59;46.20
37848;BME280;23688;33.130;-117.188;2022-09-09T03:10:35;98219.47;;;29.54;46.31
37848;BME280;23688;33.130;-117.188;2022-09-09T03:13:03;98214.38;;;29.50;46.38
37848;BME280;23688;33.130;-117.188;2022-09-09T03:15:32;98218.69;;;29.52;46.13
37848;BME280;23688;33.130;-117.188;2022-09-09T03:17:59;98215.34;;;29.49;46.21
37848;BME280;23688;33.130;-117.188;2022-09-09T03:20:27;98198.00;;;29.40;46.69
37848;BME280;23688;33.130;-117.188;2022-09-09T03:22:54;98218.94;;;29.48;46.34
37848;BME280;23688;33.130;-117.188;2022-09-09T03:25:24;98225.09;;;29.50;46.54
37848;BME280;23688;33.130;-117.188;2022-09-09T03:27:52;98221.63;;;29.48;46.81
37848;BME280;23688;33.130;-117.188;2022-09-09T03:30:22;98217.41;;;29.43;46.40
37848;BME280;23688;33.130;-117.188;2022-09-09T03:32:49;98227.94;;;29.47;46.56
37848;BME280;23688;33.130;-117.188;2022-09-09T03:35:15;98214.81;;;29.42;46.46
37848;BME280;23688;33.130;-117.188;2022-09-09T03:37:43;98211.38;;;29.40;47.12
37848;BME280;23688;33.130;-117.188;2022-09-09T03:40:12;98208.94;;;29.35;47.06
37848;BME280;23688;33.130;-117.188;2022-09-09T03:42:41;98209.63;;;29.23;47.26
37848;BME280;23688;33.130;-117.188;2022-09-09T03:45:10;98204.63;;;29.17;47.64
37848;BME280;23688;33.130;-117.188;2022-09-09T03:47:39;98224.63;;;29.26;47.51
37848;BME280;23688;33.130;-117.188;2022-09-09T03:50:09;98221.03;;;29.27;47.00
37848;BME280;23688;33.130;-117.188;2022-09-09T03:52:40;98197.53;;;29.16;47.41
37848;BME280;23688;33.130;-117.188;2022-09-09T03:55:08;98216.72;;;29.24;47.60
37848;BME280;23688;33.130;-117.188;2022-09-09T03:57:36;98197.47;;;29.17;47.24
37848;BME280;23688;33.130;-117.188;2022-09-09T04:00:08;98217.91;;;29.18;47.72
37848;BME280;23688;33.130;-117.188;2022-09-09T04:02:39;98222.88;;;29.09;47.94
37848;BME280;23688;33.130;-117.188;2022-09-09T04:05:05;98226.03;;;28.99;48.31
37848;BME280;23688;33.130;-117.188;2022-09-09T04:07:32;98230.84;;;28.93;48.21
37848;BME280;23688;33.130;-117.188;2022-09-09T04:10:00;98210.25;;;28.95;48.61
37848;BME280;23688;33.130;-117.188;2022-09-09T04:12:27;98215.25;;;29.01;48.72
37848;BME280;23688;33.130;-117.188;2022-09-09T04:14:55;98231.13;;;29.04;48.81
37848;BME280;23688;33.130;-117.188;2022-09-09T04:17:22;98230.59;;;28.97;48.84
37848;BME280;23688;33.130;-117.188;2022-09-09T04:19:51;98242.09;;;28.99;48.63
37848;BME280;23688;33.130;-117.188;2022-09-09T04:22:18;98238.38;;;29.02;48.79
37848;BME280;23688;33.130;-117.188;2022-09-09T04:24:44;98224.91;;;29.03;48.78
37848;BME280;23688;33.130;-117.188;2022-09-09T04:27:11;98235.16;;;29.13;48.01
37848;BME280;23688;33.130;-117.188;2022-09-09T04:29:39;98228.16;;;29.10;48.30
37848;BME280;23688;33.130;-117.188;2022-09-09T04:32:06;98236.09;;;29.12;48.04
37848;BME280;23688;33.130;-117.188;2022-09-09T04:34:32;98238.91;;;29.09;48.82
37848;BME280;23688;33.130;-117.188;2022-09-09T04:37:01;98210.34;;;28.93;48.63
37848;BME280;23688;33.130;-117.188;2022-09-09T04:39:29;98227.94;;;28.97;48.68
37848;BME280;23688;33.130;-117.188;2022-09-09T04:41:56;98229.47;;;29.01;48.80
37848;BME280;23688;33.130;-117.188;2022-09-09T04:44:24;98234.22;;;28.96;48.84
37848;BME280;23688;33.130;-117.188;2022-09-09T04:46:54;98228.50;;;28.87;49.30
37848;BME280;23688;33.130;-117.188;2022-09-09T04:49:25;98241.59;;;28.91;48.83
37848;BME280;23688;33.130;-117.188;2022-09-09T04:51:53;98245.91;;;28.94;48.85
37848;BME280;23688;33.130;-117.188;2022-09-09T04:54:19;98232.53;;;28.78;49.18
37848;BME280;23688;33.130;-117.188;2022-09-09T04:56:49;98232.13;;;28.86;48.94
37848;BME280;23688;33.130;-117.188;2022-09-09T04:59:17;98242.22;;;28.96;48.60
37848;BME280;23688;33.130;-117.188;2022-09-09T05:01:50;98234.22;;;28.96;48.47
37848;BME280;23688;33.130;-117.188;2022-09-09T05:04:17;98224.31;;;28.98;49.04
37848;BME280;23688;33.130;-117.188;2022-09-09T05:06:45;98200.06;;;28.86;49.08
37848;BME280;23688;33.130;-117.188;2022-09-09T05:09:14;98224.91;;;29.03;48.88
37848;BME280;23688;33.130;-117.188;2022-09-09T05:11:43;98215.00;;;29.06;49.18
37848;BME280;23688;33.130;-117.188;2022-09-09T05:14:12;98224.63;;;29.10;48.91
37848;BME280;23688;33.130;-117.188;2022-09-09T05:16:50;98222.03;;;29.08;49.33
37848;BME280;23688;33.130;-117.188;2022-09-09T05:19:23;98212.50;;;29.02;48.98
37848;BME280;23688;33.130;-117.188;2022-09-09T05:21:50;98223.09;;;29.04;50.02
37848;BME280;23688;33.130;-117.188;2022-09-09T05:24:19;98218.03;;;28.99;50.00
37848;BME280;23688;33.130;-117.188;2022-09-09T05:27:08;98220.00;;;28.96;50.12
37848;BME280;23688;33.130;-117.188;2022-09-09T05:29:38;98184.59;;;28.75;49.99
37848;BME280;23688;33.130;-117.188;2022-09-09T05:32:05;98206.34;;;28.85;50.84
37848;BME280;23688;33.130;-117.188;2022-09-09T05:34:32;98208.31;;;28.81;51.37
37848;BME280;23688;33.130;-117.188;2022-09-09T05:37:01;98203.28;;;28.75;51.34
37848;BME280;23688;33.130;-117.188;2022-09-09T05:39:29;98204.25;;;28.74;50.53
37848;BME280;23688;33.130;-117.188;2022-09-09T05:41:59;98197.19;;;28.73;50.41
37848;BME280;23688;33.130;-117.188;2022-09-09T05:44:33;98199.88;;;28.73;50.81
37848;BME280;23688;33.130;-117.188;2022-09-09T05:47:01;98184.69;;;28.73;51.15
37848;BME280;23688;33.130;-117.188;2022-09-09T05:49:29;98175.97;;;28.70;50.66
37848;BME280;23688;33.130;-117.188;2022-09-09T05:52:00;98188.66;;;28.82;50.78
37848;BME280;23688;33.130;-117.188;2022-09-09T05:54:28;98193.09;;;28.83;50.89
37848;BME280;23688;33.130;-117.188;2022-09-09T05:57:00;98184.34;;;28.79;50.56
37848;BME280;23688;33.130;-117.188;2022-09-09T05:59:28;98186.16;;;28.79;50.85
37848;BME280;23688;33.130;-117.188;2022-09-09T06:01:59;98191.44;;;28.80;50.51
37848;BME280;23688;33.130;-117.188;2022-09-09T06:04:25;98176.75;;;28.72;50.92
37848;BME280;23688;33.130;-117.188;2022-09-09T06:06:55;98179.25;;;28.75;50.31
37848;BME280;23688;33.130;-117.188;2022-09-09T06:09:44;98177.09;;;28.66;50.59
37848;BME280;23688;33.130;-117.188;2022-09-09T06:12:14;98164.00;;;28.61;50.13
37848;BME280;23688;33.130;-117.188;2022-09-09T06:14:40;98154.41;;;28.57;50.37
37848;BME280;23688;33.130;-117.188;2022-09-09T06:17:09;98164.00;;;28.61;50.08
37848;BME280;23688;33.130;-117.188;2022-09-09T06:19:35;98141.53;;;28.48;50.43
37848;BME280;23688;33.130;-117.188;2022-09-09T06:22:05;98145.25;;;28.45;50.80
37848;BME280;23688;33.130;-117.188;2022-09-09T06:24:35;98154.03;;;28.47;50.51
37848;BME280;23688;33.130;-117.188;2022-09-09T06:27:11;98124.31;;;28.36;50.39
37848;BME280;23688;33.130;-117.188;2022-09-09T06:29:44;98158.72;;;28.59;50.54
37848;BME280;23688;33.130;-117.188;2022-09-09T06:32:12;98131.56;;;28.51;50.21
37848;BME280;23688;33.130;-117.188;2022-09-09T06:34:45;98141.59;;;28.64;49.82
37848;BME280;23688;33.130;-117.188;2022-09-09T06:37:14;98134.50;;;28.63;49.88
37848;BME280;23688;33.130;-117.188;2022-09-09T06:40:01;98144.94;;;28.67;50.17
37848;BME280;23688;33.130;-117.188;2022-09-09T06:42:27;98137.28;;;28.61;49.76
37848;BME280;23688;33.130;-117.188;2022-09-09T06:44:59;98137.19;;;28.63;49.63
37848;BME280;23688;33.130;-117.188;2022-09-09T06:47:25;98144.88;;;28.69;50.20
37848;BME280;23688;33.130;-117.188;2022-09-09T06:49:53;98147.53;;;28.69;49.75
37848;BME280;23688;33.130;-117.188;2022-09-09T06:52:20;98151.06;;;28.69;50.40
37848;BME280;23688;33.130;-117.188;2022-09-09T06:54:51;98132.19;;;28.56;50.51
37848;BME280;23688;33.130;-117.188;2022-09-09T06:57:21;98143.66;;;28.58;50.67
37848;BME280;23688;33.130;-117.188;2022-09-09T06:59:50;98128.19;;;28.48;51.18
37848;BME280;23688;33.130;-117.188;2022-09-09T07:02:17;98135.28;;;28.49;50.92
37848;BME280;23688;33.130;-117.188;2022-09-09T07:04:45;98139.81;;;28.47;50.50
37848;BME280;23688;33.130;-117.188;2022-09-09T07:07:16;98129.34;;;28.42;50.69
37848;BME280;23688;33.130;-117.188;2022-09-09T07:10:26;98134.63;;;28.44;50.67
37848;BME280;23688;33.130;-117.188;2022-09-09T07:12:56;98121.84;;;28.33;50.29
37848;BME280;23688;33.130;-117.188;2022-09-09T07:15:32;98112.97;;;28.32;50.97
37848;BME280;23688;33.130;-117.188;2022-09-09T07:18:28;98113.75;;;28.34;51.66
37848;BME280;23688;33.130;-117.188;2022-09-09T07:20:57;98123.66;;;28.15;50.57
37848;BME280;23688;33.130;-117.188;2022-09-09T07:23:26;98085.94;;;27.70;51.38
37848;BME280;23688;33.130;-117.188;2022-09-09T07:26:20;98119.44;;;27.93;51.02
37848;BME280;23688;33.130;-117.188;2022-09-09T07:28:57;98086.06;;;27.67;51.24
37848;BME280;23688;33.130;-117.188;2022-09-09T07:31:46;98105.66;;;27.85;50.64
37848;BME280;23688;33.130;-117.188;2022-09-09T07:34:54;98107.34;;;27.86;51.16
37848;BME280;23688;33.130;-117.188;2022-09-09T07:37:25;98114.09;;;27.93;51.63
37848;BME280;23688;33.130;-117.188;2022-09-09T07:39:52;98105.31;;;27.91;51.76
37848;BME280;23688;33.130;-117.188;2022-09-09T07:42:18;98109.00;;;27.89;51.71
37848;BME280;23688;33.130;-117.188;2022-09-09T07:44:45;98100.38;;;27.84;52.20
37848;BME280;23688;33.130;-117.188;2022-09-09T07:47:12;98110.88;;;27.87;52.61
37848;BME280;23688;33.130;-117.188;2022-09-09T07:49:39;98103.09;;;27.82;52.51
37848;BME280;23688;33.130;-117.188;2022-09-09T07:52:06;98103.19;;;27.81;52.69
37848;BME280;23688;33.130;-117.188;2022-09-09T07:54:34;98084.97;;;27.71;52.67
37848;BME280;23688;33.130;-117.188;2022-09-09T07:57:00;98100.81;;;27.74;52.53
37848;BME280;23688;33.130;-117.188;2022-09-09T07:59:29;98102.06;;;27.67;52.85
37848;BME280;23688;33.130;-117.188;2022-09-09T08:01:56;98091.78;;;27.60;52.42
37848;BME280;23688;33.130;-117.188;2022-09-09T08:04:23;98089.56;;;27.50;51.89
37848;BME280;23688;33.130;-117.188;2022-09-09T08:06:52;98090.47;;;27.51;51.35
37848;BME280;23688;33.130;-117.188;2022-09-09T08:09:19;98090.47;;;27.51;50.51
37848;BME280;23688;33.130;-117.188;2022-09-09T08:11:46;98067.09;;;27.56;50.62
37848;BME280;23688;33.130;-117.188;2022-09-09T08:14:13;98070.22;;;27.64;49.43
37848;BME280;23688;33.130;-117.188;2022-09-09T08:16:45;98057.84;;;27.63;49.94
37848;BME280;23688;33.130;-117.188;2022-09-09T08:19:13;98057.84;;;27.63;50.22
37848;BME280;23688;33.130;-117.188;2022-09-09T08:22:00;98075.56;;;27.64;49.05
37848;BME280;23688;33.130;-117.188;2022-09-09T08:24:29;98071.69;;;27.70;49.72
37848;BME280;23688;33.130;-117.188;2022-09-09T08:26:55;98055.81;;;27.68;49.31
37848;BME280;23688;33.130;-117.188;2022-09-09T08:29:22;98058.84;;;27.78;50.18
37848;BME280;23688;33.130;-117.188;2022-09-09T08:31:52;98053.44;;;27.80;50.20
37848;BME280;23688;33.130;-117.188;2022-09-09T08:34:20;98050.13;;;27.74;50.61
37848;BME280;23688;33.130;-117.188;2022-09-09T08:36:48;98059.88;;;27.75;50.24
37848;BME280;23688;33.130;-117.188;2022-09-09T08:39:17;98053.94;;;27.70;50.10
37848;BME280;23688;33.130;-117.188;2022-09-09T08:49:58;98019.72;;;27.96;47.89
37848;BME280;23688;33.130;-117.188;2022-09-09T08:52:39;98035.78;;;28.12;47.86
37848;BME280;23688;33.130;-117.188;2022-09-09T08:55:21;98035.59;;;28.15;47.15
37848;BME280;23688;33.130;-117.188;2022-09-09T08:57:58;98036.47;;;28.15;47.14
37848;BME280;23688;33.130;-117.188;2022-09-09T09:00:48;98041.81;;;28.15;46.41
37848;BME280;23688;33.130;-117.188;2022-09-09T09:06:16;98030.75;;;28.39;45.39
37848;BME280;23688;33.130;-117.188;2022-09-09T09:09:21;98028.06;;;28.56;44.97
37848;BME280;23688;33.130;-117.188;2022-09-09T09:11:55;98031.69;;;28.71;44.66
37848;BME280;23688;33.130;-117.188;2022-09-09T09:14:28;98035.38;;;28.69;45.93
37848;BME280;23688;33.130;-117.188;2022-09-09T09:17:23;98040.69;;;28.53;46.91
37848;BME280;23688;33.130;-117.188;2022-09-09T09:19:50;98050.34;;;28.55;47.14
37848;BME280;23688;33.130;-117.188;2022-09-09T09:23:02;98044.94;;;28.57;47.23
37848;BME280;23688;33.130;-117.188;2022-09-09T09:25:16;98019.69;;;28.47;48.58
37848;BME280;23688;33.130;-117.188;2022-09-09T09:28:02;98038.91;;;28.53;48.60
37848;BME280;23688;33.130;-117.188;2022-09-09T09:30:56;98041.66;;;28.52;47.95
37848;BME280;23688;33.130;-117.188;2022-09-09T09:36:12;98037.41;;;28.48;46.76
37848;BME280;23688;33.130;-117.188;2022-09-09T09:38:55;98023.34;;;28.44;46.03
37848;BME280;23688;33.130;-117.188;2022-09-09T09:41:38;98031.50;;;28.58;44.96
37848;BME280;23688;33.130;-117.188;2022-09-09T09:44:06;98029.63;;;28.61;44.45
37848;BME280;23688;33.130;-117.188;2022-09-09T09:46:47;98040.22;;;28.78;43.52
37848;BME280;23688;33.130;-117.188;2022-09-09T09:49:13;98036.84;;;29.06;43.05
37848;BME280;23688;33.130;-117.188;2022-09-09T09:51:40;98036.66;;;29.25;42.10
37848;BME280;23688;33.130;-117.188;2022-09-09T09:56:36;98023.72;;;29.63;41.03
37848;BME280;23688;33.130;-117.188;2022-09-09T09:59:02;98034.19;;;29.97;40.18
37848;BME280;23688;33.130;-117.188;2022-09-09T10:01:33;98036.31;;;30.20;39.21
37848;BME280;23688;33.130;-117.188;2022-09-09T10:04:19;98051.66;;;30.47;38.76
37848;BME280;23688;33.130;-117.188;2022-09-09T10:06:46;98056.59;;;30.67;38.77
37848;BME280;23688;33.130;-117.188;2022-09-09T10:09:27;98037.69;;;30.70;38.30
37848;BME280;23688;33.130;-117.188;2022-09-09T10:16:17;98055.72;;;30.96;38.73
37848;BME280;23688;33.130;-117.188;2022-09-09T10:26:48;98055.09;;;31.19;37.69
37848;BME280;23688;33.130;-117.188;2022-09-09T10:37:40;98052.50;;;31.18;38.23
37848;BME280;23688;33.130;-117.188;2022-09-09T10:40:30;98050.28;;;31.24;38.87
37848;BME280;23688;33.130;-117.188;2022-09-09T10:45:49;98037.72;;;31.25;38.88
37848;BME280;23688;33.130;-117.188;2022-09-09T10:48:49;98040.50;;;31.23;39.37
37848;BME280;23688;33.130;-117.188;2022-09-09T10:56:43;98021.09;;;31.20;40.75
37848;BME280;23688;33.130;-117.188;2022-09-09T10:59:19;98017.75;;;31.16;40.80
37848;BME280;23688;33.130;-117.188;2022-09-09T11:01:59;98009.91;;;31.13;40.75
37848;BME280;23688;33.130;-117.188;2022-09-09T11:07:37;98013.66;;;31.10;41.42
37848;BME280;23688;33.130;-117.188;2022-09-09T11:10:32;98013.94;;;31.06;42.11
37848;BME280;23688;33.130;-117.188;2022-09-09T11:13:05;98007.94;;;31.02;41.84
37848;BME280;23688;33.130;-117.188;2022-09-09T11:15:44;97993.22;;;30.95;41.85
37848;BME280;23688;33.130;-117.188;2022-09-09T11:18:21;98004.72;;;30.97;42.31
37848;BME280;23688;33.130;-117.188;2022-09-09T11:20:53;98006.63;;;30.95;42.20
37848;BME280;23688;33.130;-117.188;2022-09-09T11:23:27;98013.06;;;30.92;42.21
37848;BME280;23688;33.130;-117.188;2022-09-09T11:26:01;98015.63;;;30.94;41.63
37848;BME280;23688;33.130;-117.188;2022-09-09T11:28:38;98015.31;;;30.99;41.96
37848;BME280;23688;33.130;-117.188;2022-09-09T11:34:21;98011.44;;;30.90;42.52
37848;BME280;23688;33.130;-117.188;2022-09-09T11:42:39;97988.25;;;30.75;42.89
37848;BME280;23688;33.130;-117.188;2022-09-09T11:47:57;97984.66;;;30.76;43.31
37848;BME280;23688;33.130;-117.188;2022-09-09T11:52:50;97956.63;;;30.67;43.74
37848;BME280;23688;33.130;-117.188;2022-09-09T11:55:26;97960.38;;;30.64;43.59
37848;BME280;23688;33.130;-117.188;2022-09-09T11:58:05;97954.84;;;30.53;43.60
37848;BME280;23688;33.130;-117.188;2022-09-09T12:00:46;97942.81;;;30.46;43.91
37848;BME280;23688;33.130;-117.188;2022-09-09T12:06:13;97945.69;;;30.43;44.14
37848;BME280;23688;33.130;-117.188;2022-09-09T12:08:44;97947.78;;;30.38;44.93
37848;BME280;23688;33.130;-117.188;2022-09-09T12:11:11;97959.47;;;30.37;44.73
37848;BME280;23688;33.130;-117.188;2022-09-09T12:13:37;97954.63;;;30.29;44.87
37848;BME280;23688;33.130;-117.188;2022-09-09T12:16:04;97970.56;;;30.31;44.80
37848;BME280;23688;33.130;-117.188;2022-09-09T12:18:38;97972.19;;;30.33;45.29
37848;BME280;23688;33.130;-117.188;2022-09-09T12:23:55;97969.63;;;30.32;45.32
37848;BME280;23688;33.130;-117.188;2022-09-09T12:32:11;97961.75;;;30.28;45.04
37848;BME280;23688;33.130;-117.188;2022-09-09T12:34:47;97968.34;;;30.23;45.40
37848;BME280;23688;33.130;-117.188;2022-09-09T12:40:05;97975.81;;;30.18;45.92
37848;BME280;23688;33.130;-117.188;2022-09-09T12:42:32;97974.47;;;30.11;45.76
37848;BME280;23688;33.130;-117.188;2022-09-09T12:45:00;97972.75;;;30.10;46.16
37848;BME280;23688;33.130;-117.188;2022-09-09T12:47:41;97990.63;;;30.09;45.69
37848;BME280;23688;33.130;-117.188;2022-09-09T12:50:24;97986.16;;;30.10;46.04
37848;BME280;23688;33.130;-117.188;2022-09-09T12:52:59;97978.78;;;29.99;45.41
37848;BME280;23688;33.130;-117.188;2022-09-09T12:55:36;97966.44;;;29.82;45.78
37848;BME280;23688;33.130;-117.188;2022-09-09T12:58:05;98005.38;;;30.02;45.44
37848;BME280;23688;33.130;-117.188;2022-09-09T13:00:34;98010.72;;;30.02;45.69
37848;BME280;23688;33.130;-117.188;2022-09-09T13:03:17;98021.03;;;30.08;45.33
37848;BME280;23688;33.130;-117.188;2022-09-09T13:05:44;98021.22;;;30.05;45.65
37848;BME280;23688;33.130;-117.188;2022-09-09T13:08:13;98023.69;;;30.08;45.45
37848;BME280;23688;33.130;-117.188;2022-09-09T13:13:26;98041.47;;;30.09;45.29
37848;BME280;23688;33.130;-117.188;2022-09-09T13:15:57;98038.78;;;30.09;45.82
37848;BME280;23688;33.130;-117.188;2022-09-09T13:18:34;98034.41;;;30.08;45.86
37848;BME280;23688;33.130;-117.188;2022-09-09T13:21:01;98038.63;;;30.12;45.67
37848;BME280;23688;33.130;-117.188;2022-09-09T13:23:31;98038.63;;;30.12;45.62
37848;BME280;23688;33.130;-117.188;2022-09-09T13:26:00;98025.03;;;30.01;45.70
37848;BME280;23688;33.130;-117.188;2022-09-09T13:28:28;98052.47;;;30.19;45.64
37848;BME280;23688;33.130;-117.188;2022-09-09T13:31:03;98057.16;;;30.15;45.88
37848;BME280;23688;33.130;-117.188;2022-09-09T13:33:39;98065.28;;;30.14;46.10
37848;BME280;23688;33.130;-117.188;2022-09-09T13:36:08;98058.13;;;30.14;46.22
37848;BME280;23688;33.130;-117.188;2022-09-09T13:38:56;98065.28;;;30.14;46.22
37848;BME280;23688;33.130;-117.188;2022-09-09T13:41:25;98059.84;;;30.15;46.25
37848;BME280;23688;33.130;-117.188;2022-09-09T13:43:52;98061.56;;;30.16;46.18
37848;BME280;23688;33.130;-117.188;2022-09-09T13:46:38;98057.38;;;30.12;46.65
37848;BME280;23688;33.130;-117.188;2022-09-09T13:51:37;98053.16;;;30.08;47.08
37848;BME280;23688;33.130;-117.188;2022-09-09T13:54:05;98057.91;;;30.03;47.39
37848;BME280;23688;33.130;-117.188;2022-09-09T13:56:35;98052.56;;;30.03;47.73
37848;BME280;23688;33.130;-117.188;2022-09-09T13:59:09;98052.53;;;29.89;47.92
37848;BME280;23688;33.130;-117.188;2022-09-09T14:01:36;98048.91;;;29.75;48.89
37848;BME280;23688;33.130;-117.188;2022-09-09T14:04:03;98062.09;;;29.78;48.64
37848;BME280;23688;33.130;-117.188;2022-09-09T14:06:32;98064.84;;;29.77;49.20
37848;BME280;23688;33.130;-117.188;2022-09-09T14:09:00;98071.84;;;29.63;50.24
37848;BME280;23688;33.130;-117.188;2022-09-09T14:11:26;98065.13;;;29.56;50.27
37848;BME280;23688;33.130;-117.188;2022-09-09T14:13:53;98066.59;;;29.62;50.37
37848;BME280;23688;33.130;-117.188;2022-09-09T14:16:19;98059.69;;;29.58;50.60
37848;BME280;23688;33.130;-117.188;2022-09-09T14:18:47;98067.38;;;29.48;51.16
37848;BME280;23688;33.130;-117.188;2022-09-09T14:21:14;98065.69;;;29.47;51.28
37848;BME280;23688;33.130;-117.188;2022-09-09T14:23:41;98057.72;;;29.45;51.33
37848;BME280;23688;33.130;-117.188;2022-09-09T14:26:08;98048.34;;;29.38;52.05
37848;BME280;23688;33.130;-117.188;2022-09-09T14:28:35;98051.91;;;29.39;52.35
37848;BME280;23688;33.130;-117.188;2022-09-09T14:31:03;98059.22;;;29.35;53.33
37848;BME280;23688;33.130;-117.188;2022-09-09T14:33:31;98068.41;;;29.31;52.68
37848;BME280;23688;33.130;-117.188;2022-09-09T14:36:01;98064.34;;;29.24;53.48
37848;BME280;23688;33.130;-117.188;2022-09-09T14:38:35;98065.22;;;29.25;53.90
37848;BME280;23688;33.130;-117.188;2022-09-09T14:41:13;98059.41;;;29.16;53.92
37848;BME280;23688;33.130;-117.188;2022-09-09T14:43:42;98059.94;;;29.23;53.44
37848;BME280;23688;33.130;-117.188;2022-09-09T14:46:11;98060.53;;;29.28;53.26
37848;BME280;23688;33.130;-117.188;2022-09-09T14:48:38;98039.59;;;29.20;52.83